Excelsior, Pennsylvania
Current Conditions -  °F | °C
As of 3:53 PM on Sunday 21 Dec 2014 (Local Time) from KSEG Reporting Station
Clear Clear  
Wind Chill: 32°   Ceiling: Unl
Heat Index: 32°   Visibility: 10mi
Dew Point: 21°   Wind: 3mph
Humidity: 64%   Direction: 320°NW
Pressure: 30.3"   Gusts: NA
Location:  40.77°N, 76.5°W
Report Text: KSEG 212053Z AUTO 32003KT 10SM CLR 00/M06 A3030 RMK AO2 SLP266 T00001061 55006
Loading
Personal Weather Stations






























Interactive Weather Map New forecast layout! Learn more

10-Day Weather Forecast

Advertisements
Track Severe Weather on mobile